Time;durP1;ratioP1;P1;durP2;ratioP2;P2;SDS_P1;SDS_P2;PMS_P1;PMS_P2;Temp;Humidity;BMP_temperature;BMP_pressure;BME280_temperature;BME280_humidity;BME280_pressure;Samples;Min_cycle;Max_cycle;Signal;HPM_P1;HPM_P2
2021/06/15 04:32:58;;;;;;;12.07;5.23;;;14.00;99.90;;;;;;4971498;22;20509;-72
2021/06/15 04:35:31;;;;;;;7.50;5.23;;;14.00;99.90;;;;;;4973560;28;20438;-75
2021/06/15 04:38:01;;;;;;;6.47;5.87;;;14.10;99.90;;;;;;4975089;28;20396;-76
2021/06/15 04:40:43;;;;;;;6.70;6.10;;;14.20;99.90;;;;;;4974656;28;20914;-72
2021/06/15 04:43:30;;;;;;;7.20;6.50;;;14.30;99.90;;;;;;4974384;28;20419;-72
2021/06/15 04:46:14;;;;;;;11.00;6.30;;;14.40;99.90;;;;;;4974915;28;20419;-74
2021/06/15 04:48:43;;;;;;;7.33;6.50;;;14.60;99.90;;;;;;4973454;28;20803;-75
2021/06/15 04:51:10;;;;;;;10.57;7.90;;;14.80;99.90;;;;;;4974477;28;20530;-75
2021/06/15 04:53:38;;;;;;;7.67;6.87;;;15.00;99.90;;;;;;4974690;28;20989;-75
2021/06/15 04:56:06;;;;;;;8.60;6.10;;;15.20;99.90;;;;;;4974160;28;20408;-75
2021/06/15 04:58:32;;;;;;;7.83;6.60;;;15.40;99.90;;;;;;4973252;28;20494;-75
2021/06/15 05:01:00;;;;;;;11.00;6.37;;;15.70;99.90;;;;;;4974026;28;20471;-77
2021/06/15 05:03:29;;;;;;;12.47;6.30;;;16.10;99.90;;;;;;4974333;28;20407;-75
2021/06/15 05:05:56;;;;;;;8.90;5.30;;;16.70;99.90;;;;;;4974031;28;20414;-74
2021/06/15 05:08:27;;;;;;;7.90;6.20;;;17.30;99.90;;;;;;4973962;28;20493;-74
2021/06/15 05:10:56;;;;;;;9.77;6.10;;;17.90;99.90;;;;;;4974119;28;20782;-71
2021/06/15 05:13:23;;;;;;;6.63;5.57;;;18.40;99.90;;;;;;4979742;23;20498;-73
2021/06/15 05:15:52;;;;;;;8.63;5.47;;;19.00;99.90;;;;;;4966669;28;20817;-73
2021/06/15 05:18:23;;;;;;;7.27;5.70;;;19.50;99.90;;;;;;4973479;28;20561;-74
2021/06/15 05:20:48;;;;;;;6.20;5.30;;;19.90;99.90;;;;;;4973318;28;20467;-72
2021/06/15 05:23:28;;;;;;;5.60;4.77;;;20.40;99.90;;;;;;4973049;28;20796;-72
2021/06/15 05:25:54;;;;;;;8.10;5.10;;;20.80;99.90;;;;;;4973234;28;20175;-71
2021/06/15 05:28:19;;;;;;;7.67;5.10;;;21.30;99.90;;;;;;4973260;28;20419;-72
2021/06/15 05:30:45;;;;;;;9.43;5.60;;;21.60;99.90;;;;;;4973145;28;20290;-71
2021/06/15 05:33:11;;;;;;;7.90;5.20;;;21.90;99.90;;;;;;4972904;28;20180;-72
2021/06/15 05:35:38;;;;;;;7.97;5.53;;;22.10;99.90;;;;;;4973055;28;20415;-71
2021/06/15 05:38:03;;;;;;;6.70;5.80;;;22.20;99.90;;;;;;4973145;28;20254;-72
2021/06/15 05:40:29;;;;;;;10.93;5.53;;;22.40;99.90;;;;;;4972778;28;20545;-71
2021/06/15 05:42:55;;;;;;;7.80;4.60;;;22.60;99.90;;;;;;4945684;28;20192;-71
2021/06/15 05:45:20;;;;;;;7.40;4.57;;;22.80;99.90;;;;;;4934549;29;20643;-71
2021/06/15 05:47:46;;;;;;;5.47;4.30;;;23.00;99.90;;;;;;4934748;29;20516;-71
2021/06/15 05:50:14;;;;;;;6.30;5.17;;;23.00;99.90;;;;;;4934716;29;20223;-71
2021/06/15 05:52:39;;;;;;;7.10;5.70;;;23.20;99.90;;;;;;4933952;29;20737;-71
2021/06/15 05:55:06;;;;;;;6.50;4.90;;;23.30;99.90;;;;;;4934470;29;20421;-72
2021/06/15 05:57:32;;;;;;;6.90;5.83;;;23.50;99.90;;;;;;4934577;29;20183;-71
2021/06/15 05:59:58;;;;;;;14.10;5.03;;;23.50;99.90;;;;;;4934497;29;20460;-71
2021/06/15 06:02:25;;;;;;;12.13;5.40;;;23.70;99.90;;;;;;4934216;29;20193;-71
2021/06/15 06:05:05;;;;;;;8.00;5.77;;;23.90;99.90;;;;;;4933960;29;20444;-72
2021/06/15 06:10:14;;;;;;;7.63;5.40;;;24.20;99.90;;;;;;4934131;29;20424;-72
2021/06/15 06:12:40;;;;;;;5.97;5.40;;;24.40;99.90;;;;;;4936555;29;20895;-79
2021/06/15 06:15:07;;;;;;;17.10;5.30;;;24.70;99.90;;;;;;4935757;29;20185;-79
2021/06/15 06:17:33;;;;;;;7.97;6.07;;;25.00;99.90;;;;;;4950259;28;20184;-79
2021/06/15 06:19:59;;;;;;;6.17;5.03;;;25.10;99.90;;;;;;4956147;28;20455;-79
2021/06/15 06:22:25;;;;;;;6.23;5.00;;;25.20;99.90;;;;;;4957267;29;20452;-80
2021/06/15 06:24:50;;;;;;;10.83;4.90;;;25.30;99.90;;;;;;4957439;28;20181;-79
2021/06/15 06:27:16;;;;;;;9.40;5.17;;;25.60;99.90;;;;;;4956791;28;20183;-78
2021/06/15 06:29:42;;;;;;;8.30;5.43;;;25.80;99.90;;;;;;4953385;28;20207;-77
2021/06/15 06:32:08;;;;;;;5.70;4.77;;;26.10;99.90;;;;;;4952970;28;20219;-77
2021/06/15 06:34:34;;;;;;;7.83;4.87;;;26.30;99.90;;;;;;4952294;29;20924;-78
2021/06/15 06:36:59;;;;;;;12.00;5.97;;;26.50;99.90;;;;;;4952966;29;20184;-78
2021/06/15 06:39:25;;;;;;;10.60;5.00;;;26.40;99.90;;;;;;4953603;28;20181;-79
2021/06/15 06:41:51;;;;;;;8.73;4.57;;;26.40;99.90;;;;;;4952950;29;20692;-79
2021/06/15 06:44:17;;;;;;;9.77;5.33;;;26.60;99.90;;;;;;4953252;29;20184;-79
2021/06/15 06:46:43;;;;;;;9.23;5.30;;;26.70;99.90;;;;;;4953750;28;20173;-79
2021/06/15 06:49:09;;;;;;;8.90;5.00;;;27.00;99.90;;;;;;4953622;29;20414;-79
2021/06/15 06:51:35;;;;;;;12.77;5.20;;;27.10;99.90;;;;;;4953647;29;20252;-80
2021/06/15 06:54:00;;;;;;;10.90;5.03;;;27.30;99.90;;;;;;4953241;29;20267;-78
2021/06/15 06:56:27;;;;;;;6.50;4.63;;;27.50;99.90;;;;;;4953458;29;20188;-78
2021/06/15 06:58:53;;;;;;;8.97;4.60;;;27.40;99.90;;;;;;4953636;28;20660;-78
2021/06/15 07:01:21;;;;;;;13.00;5.57;;;27.60;99.90;;;;;;4952544;29;20464;-79
2021/06/15 07:03:47;;;;;;;7.93;4.93;;;27.90;99.90;;;;;;4952911;28;21008;-78
2021/06/15 07:06:13;;;;;;;12.23;5.00;;;27.80;99.90;;;;;;4956547;29;20799;-78
2021/06/15 07:08:38;;;;;;;11.07;5.60;;;28.10;99.90;;;;;;4956672;28;20420;-78
2021/06/15 07:11:04;;;;;;;8.20;5.00;;;28.10;99.90;;;;;;4956548;29;20638;-79
2021/06/15 07:13:29;;;;;;;8.63;4.10;;;28.20;99.90;;;;;;4956445;29;20279;-78
2021/06/15 07:15:55;;;;;;;11.07;5.53;;;28.40;99.90;;;;;;4955515;29;20657;-78
2021/06/15 07:18:20;;;;;;;5.43;4.20;;;28.50;99.90;;;;;;4956899;29;20192;-79
2021/06/15 07:20:46;;;;;;;10.20;6.00;;;28.60;99.90;;;;;;4956905;29;20207;-78
2021/06/15 07:23:11;;;;;;;10.13;4.77;;;28.30;99.90;;;;;;4955380;29;20185;-79
2021/06/15 07:25:37;;;;;;;8.53;5.20;;;28.20;99.90;;;;;;4956367;28;20184;-78
2021/06/15 07:28:03;;;;;;;9.03;4.03;;;28.30;99.90;;;;;;4956996;29;20169;-77
2021/06/15 07:30:28;;;;;;;11.03;4.57;;;28.70;99.90;;;;;;4956444;28;20177;-78
2021/06/15 07:32:57;;;;;;;8.90;4.13;;;28.60;99.90;;;;;;4956408;29;20187;-78
2021/06/15 07:35:24;;;;;;;4.90;4.37;;;28.60;99.90;;;;;;4972152;28;20234;-79
2021/06/15 07:37:50;;;;;;;13.00;4.70;;;28.60;99.90;;;;;;4975775;28;20803;-80
2021/06/15 07:40:22;;;;;;;7.53;3.90;;;28.80;99.90;;;;;;4975760;28;21182;-78
2021/06/15 07:42:47;;;;;;;6.07;3.97;;;28.90;99.90;;;;;;4975533;28;20527;-79
2021/06/15 07:45:13;;;;;;;7.27;4.00;;;29.10;99.90;;;;;;4975726;28;20854;-78
2021/06/15 07:47:39;;;;;;;7.83;4.23;;;29.40;99.90;;;;;;4975545;28;20556;-78
2021/06/15 07:50:05;;;;;;;8.33;4.60;;;29.70;99.90;;;;;;4975368;28;20412;-79
2021/06/15 07:52:31;;;;;;;5.73;4.10;;;29.90;99.90;;;;;;4970605;28;20283;-80
2021/06/15 07:54:56;;;;;;;4.03;3.73;;;30.00;99.90;;;;;;4955104;28;20233;-80
2021/06/15 07:57:22;;;;;;;12.73;4.37;;;30.00;99.90;;;;;;4956095;29;20412;-79
2021/06/15 07:59:48;;;;;;;15.37;4.77;;;30.10;99.90;;;;;;4955392;29;20251;-79
2021/06/15 08:02:13;;;;;;;7.03;4.40;;;30.40;99.90;;;;;;4955776;29;20683;-79
2021/06/15 08:04:39;;;;;;;6.47;4.00;;;30.40;99.90;;;;;;4955938;28;20555;-78
2021/06/15 08:07:04;;;;;;;9.90;4.30;;;30.80;99.90;;;;;;4956261;28;20180;-78
2021/06/15 08:09:30;;;;;;;5.67;4.33;;;30.60;99.90;;;;;;4956100;29;20200;-79
2021/06/15 08:11:56;;;;;;;10.70;4.70;;;30.80;99.90;;;;;;4955953;29;20332;-78
2021/06/15 08:14:21;;;;;;;6.67;3.80;;;30.60;99.90;;;;;;4955562;28;20195;-78
2021/06/15 08:16:47;;;;;;;3.90;3.53;;;30.40;99.90;;;;;;4955576;28;20531;-78
2021/06/15 08:19:12;;;;;;;5.77;3.77;;;30.70;99.90;;;;;;4954666;29;20554;-79
2021/06/15 08:21:38;;;;;;;5.93;3.97;;;31.10;99.90;;;;;;4955640;29;20212;-78
2021/06/15 08:24:04;;;;;;;6.70;3.77;;;31.30;99.90;;;;;;4955366;28;20177;-78
2021/06/15 08:26:30;;;;;;;3.93;3.50;;;31.10;99.90;;;;;;4955398;28;20538;-78
2021/06/15 08:28:55;;;;;;;9.23;3.20;;;31.20;99.90;;;;;;4955688;28;20541;-78
2021/06/15 08:31:21;;;;;;;7.00;3.17;;;31.20;99.90;;;;;;4955198;29;20255;-80
2021/06/15 08:33:47;;;;;;;5.60;3.40;;;31.50;99.90;;;;;;4955556;29;20183;-78
2021/06/15 08:36:12;;;;;;;11.33;3.53;;;31.90;99.90;;;;;;4956146;29;20272;-79
2021/06/15 08:38:38;;;;;;;2.90;2.70;;;31.80;99.70;;;;;;4955985;29;20181;-78
2021/06/15 08:41:03;;;;;;;10.83;3.60;;;31.90;99.90;;;;;;4955330;29;20243;-80
2021/06/15 08:43:29;;;;;;;5.30;3.03;;;32.20;99.90;;;;;;4955138;29;20553;-79
2021/06/15 08:45:55;;;;;;;8.37;3.60;;;32.40;99.90;;;;;;4955443;28;20184;-78
2021/06/15 08:48:21;;;;;;;5.03;3.13;;;32.50;98.50;;;;;;4955998;28;20717;-79
2021/06/15 08:50:47;;;;;;;8.63;3.07;;;32.60;99.50;;;;;;4955875;29;20436;-79
2021/06/15 08:53:14;;;;;;;8.80;2.87;;;32.50;99.60;;;;;;4955069;28;20173;-79
2021/06/15 08:55:47;;;;;;;4.83;3.00;;;32.30;97.70;;;;;;4955379;28;20440;-78
2021/06/15 08:58:51;;;;;;;3.43;2.60;;;32.60;98.50;;;;;;4955487;28;20499;-80
2021/06/15 09:01:17;;;;;;;4.23;3.10;;;32.60;98.70;;;;;;4950935;29;20475;-79
2021/06/15 09:03:42;;;;;;;3.90;3.27;;;33.00;97.90;;;;;;4955090;28;20795;-78
2021/06/15 09:06:08;;;;;;;5.53;2.70;;;33.20;96.40;;;;;;4955282;28;20171;-78
2021/06/15 09:08:51;;;;;;;4.60;2.70;;;33.20;97.40;;;;;;4953922;28;20184;-78
2021/06/15 09:11:17;;;;;;;7.30;3.10;;;33.30;95.60;;;;;;4953847;29;20200;-77
2021/06/15 09:13:42;;;;;;;3.23;2.40;;;33.20;95.00;;;;;;4952733;28;20806;-78
2021/06/15 09:16:28;;;;;;;7.73;3.00;;;33.30;95.20;;;;;;4954618;29;20234;-79
2021/06/15 09:18:58;;;;;;;5.57;2.93;;;33.50;95.30;;;;;;4954783;29;20566;-81
2021/06/15 09:21:29;;;;;;;9.20;3.10;;;33.50;94.60;;;;;;4954295;28;20460;-80
2021/06/15 09:24:07;;;;;;;4.07;2.87;;;33.90;95.10;;;;;;4953957;28;20412;-79
2021/06/15 09:27:10;;;;;;;2.90;2.70;;;34.00;94.70;;;;;;4952640;28;20448;-77
2021/06/15 09:29:53;;;;;;;7.03;2.80;;;34.00;93.50;;;;;;4954193;29;20427;-76
2021/06/15 09:32:24;;;;;;;3.00;2.77;;;33.80;91.70;;;;;;4954106;28;20535;-79
2021/06/15 09:34:50;;;;;;;4.73;2.30;;;33.30;90.80;;;;;;4953862;28;20416;-77
2021/06/15 09:37:16;;;;;;;7.70;3.00;;;32.80;91.60;;;;;;4954108;29;20481;-75
2021/06/15 09:39:42;;;;;;;4.97;2.40;;;32.40;91.80;;;;;;4951620;28;20555;-78
2021/06/15 09:42:12;;;;;;;6.20;2.33;;;32.80;91.50;;;;;;4953317;28;20440;-78
2021/06/15 09:44:38;;;;;;;2.60;2.17;;;33.30;91.40;;;;;;4953681;29;20180;-77
2021/06/15 09:47:05;;;;;;;2.77;2.57;;;33.90;90.30;;;;;;4954011;29;20420;-77
2021/06/15 09:49:37;;;;;;;4.87;3.47;;;34.80;91.80;;;;;;4953799;29;20268;-76
2021/06/15 09:52:12;;;;;;;2.97;2.60;;;35.10;91.00;;;;;;4953889;28;20443;-78
2021/06/15 09:54:39;;;;;;;2.10;1.90;;;34.90;89.00;;;;;;4953490;28;20423;-78
2021/06/15 09:57:05;;;;;;;6.50;2.93;;;35.10;84.80;;;;;;4954002;29;20412;-77
2021/06/15 09:59:30;;;;;;;6.73;2.50;;;35.40;85.30;;;;;;4953645;29;20475;-80
2021/06/15 10:01:56;;;;;;;7.83;2.53;;;35.50;85.20;;;;;;4953444;28;20224;-81
2021/06/15 10:04:23;;;;;;;4.13;2.63;;;35.50;82.70;;;;;;4953323;29;20184;-76
2021/06/15 10:06:57;;;;;;;2.70;2.50;;;35.10;81.30;;;;;;4953628;28;20177;-78
2021/06/15 10:09:34;;;;;;;2.50;2.20;;;34.70;81.10;;;;;;4954003;28;20424;-75
2021/06/15 10:12:05;;;;;;;3.60;2.17;;;34.70;83.90;;;;;;4953127;28;20486;-78
2021/06/15 10:14:33;;;;;;;3.20;2.23;;;35.20;84.00;;;;;;4953416;29;20449;-77
2021/06/15 10:16:59;;;;;;;2.47;2.27;;;35.30;80.40;;;;;;4953595;28;20495;-77
2021/06/15 10:19:26;;;;;;;4.73;2.70;;;35.70;81.30;;;;;;4953766;28;20809;-74
2021/06/15 10:21:52;;;;;;;5.70;2.93;;;35.30;81.20;;;;;;4953281;28;20487;-79
2021/06/15 10:24:22;;;;;;;2.80;2.43;;;35.30;79.00;;;;;;4953492;28;20906;-78
2021/06/15 10:26:48;;;;;;;4.07;1.97;;;35.10;79.40;;;;;;4953372;28;20559;-78
2021/06/15 10:29:14;;;;;;;7.23;2.40;;;34.80;80.70;;;;;;4953565;29;20523;-75
2021/06/15 10:31:47;;;;;;;6.60;2.33;;;35.30;81.70;;;;;;4951624;29;20599;-78
2021/06/15 10:34:13;;;;;;;2.23;2.00;;;35.80;81.20;;;;;;4953235;28;20515;-78
2021/06/15 10:36:44;;;;;;;4.77;2.63;;;36.20;80.00;;;;;;4953109;28;20435;-77
2021/06/15 10:39:38;;;;;;;4.90;2.70;;;36.40;80.20;;;;;;4955575;28;20416;-78
2021/06/15 10:42:15;;;;;;;3.07;2.70;;;36.30;76.00;;;;;;4954296;28;20452;-77
2021/06/15 10:44:44;;;;;;;2.40;2.20;;;36.00;78.70;;;;;;4956805;29;20427;-77
2021/06/15 10:47:12;;;;;;;2.57;2.37;;;35.80;79.90;;;;;;4957584;28;20409;-77
2021/06/15 10:49:58;;;;;;;4.13;1.83;;;35.40;79.00;;;;;;4957152;29;20480;-79
2021/06/15 10:52:24;;;;;;;3.13;2.30;;;35.20;80.10;;;;;;4957123;28;20901;-79
2021/06/15 10:54:50;;;;;;;4.43;2.07;;;35.30;79.50;;;;;;4956878;29;20400;-78
2021/06/15 10:57:23;;;;;;;3.67;2.23;;;35.30;77.50;;;;;;4957652;29;20408;-77
2021/06/15 11:00:09;;;;;;;4.73;2.77;;;35.20;82.10;;;;;;4956063;28;20172;-78
2021/06/15 11:02:36;;;;;;;3.33;2.30;;;35.50;81.20;;;;;;4956756;29;20440;-77
2021/06/15 11:05:39;;;;;;;3.63;2.33;;;35.30;78.30;;;;;;4956974;29;20468;-77
2021/06/15 11:08:16;;;;;;;2.33;2.13;;;35.10;78.20;;;;;;4957154;28;20400;-77
2021/06/15 11:10:46;;;;;;;6.13;2.57;;;35.10;76.00;;;;;;4955579;28;20499;-77
2021/06/15 11:13:12;;;;;;;3.10;2.30;;;34.90;75.20;;;;;;4956684;28;20805;-77
2021/06/15 11:15:59;;;;;;;2.90;2.70;;;34.40;77.50;;;;;;4955416;29;20428;-77
2021/06/15 11:18:25;;;;;;;2.63;2.40;;;33.80;76.60;;;;;;4956913;28;20697;-79
2021/06/15 11:20:50;;;;;;;7.43;2.30;;;33.50;76.90;;;;;;4956627;28;20464;-77
2021/06/15 11:23:23;;;;;;;2.47;2.00;;;33.00;80.00;;;;;;4948177;29;20633;-77
2021/06/15 11:26:02;;;;;;;3.33;2.17;;;33.00;78.40;;;;;;4937425;29;20209;-77
2021/06/15 11:28:42;;;;;;;6.23;2.50;;;33.10;81.70;;;;;;4937402;29;20421;-76
2021/06/15 11:31:17;;;;;;;5.77;2.27;;;33.30;82.90;;;;;;4937221;29;20441;-78
2021/06/15 11:34:01;;;;;;;3.80;2.43;;;33.30;80.90;;;;;;4937154;29;20926;-77
2021/06/15 11:36:39;;;;;;;2.63;2.43;;;33.60;79.30;;;;;;4936965;29;20795;-78
2021/06/15 11:39:32;;;;;;;2.43;2.30;;;33.80;79.90;;;;;;4936882;29;20505;-78
2021/06/15 11:42:16;;;;;;;5.50;2.37;;;33.70;78.00;;;;;;4935616;29;21210;-78
2021/06/15 11:45:02;;;;;;;4.97;2.57;;;33.40;77.20;;;;;;4936620;29;20413;-79
2021/06/15 11:47:52;;;;;;;4.60;2.77;;;33.10;77.50;;;;;;4936794;29;21042;-78
2021/06/15 11:50:31;;;;;;;3.53;2.50;;;32.70;78.00;;;;;;4934911;29;20425;-78
2021/06/15 11:52:58;;;;;;;2.60;2.40;;;32.70;78.50;;;;;;4936329;29;20417;-78
2021/06/15 11:55:43;;;;;;;2.10;1.90;;;32.70;79.60;;;;;;4936622;29;20444;-78
2021/06/15 11:58:30;;;;;;;6.47;1.93;;;32.70;77.70;;;;;;4936921;29;20424;-77
2021/06/15 12:01:07;;;;;;;4.20;2.83;;;32.50;78.30;;;;;;4936394;29;20519;-79
2021/06/15 12:03:38;;;;;;;2.77;2.47;;;32.70;79.80;;;;;;4936206;29;20418;-78
2021/06/15 12:06:06;;;;;;;3.23;2.10;;;32.80;78.40;;;;;;4936631;29;20500;-77
2021/06/15 12:08:33;;;;;;;2.53;2.20;;;32.60;78.50;;;;;;4936534;29;20777;-77
2021/06/15 12:11:00;;;;;;;3.23;2.40;;;32.40;78.00;;;;;;4936270;29;20441;-78
2021/06/15 12:13:27;;;;;;;2.33;2.13;;;32.40;78.20;;;;;;4936143;29;20791;-78
2021/06/15 12:16:01;;;;;;;1.50;1.40;;;32.30;78.90;;;;;;4936390;29;20417;-78
2021/06/15 12:18:27;;;;;;;2.30;2.03;;;32.20;77.10;;;;;;4936194;29;20789;-78
2021/06/15 12:21:04;;;;;;;4.40;2.40;;;32.20;79.50;;;;;;4936759;29;20468;-79
2021/06/15 12:23:37;;;;;;;3.67;2.47;;;32.10;77.20;;;;;;4937775;29;20169;-78
2021/06/15 12:26:07;;;;;;;6.00;2.37;;;31.70;79.50;;;;;;4936336;29;20456;-80
2021/06/15 12:28:34;;;;;;;1.93;1.80;;;32.00;83.50;;;;;;4936404;29;20414;-76
2021/06/15 12:31:24;;;;;;;2.07;1.97;;;31.90;77.80;;;;;;4936183;29;20488;-79
2021/06/15 12:34:12;;;;;;;5.97;2.03;;;32.00;77.70;;;;;;4935917;29;20424;-79
2021/06/15 12:36:40;;;;;;;2.90;2.13;;;32.10;76.90;;;;;;4935642;29;20441;-78
2021/06/15 12:39:08;;;;;;;2.20;2.10;;;31.60;77.00;;;;;;4948681;28;20428;-78
2021/06/15 12:41:34;;;;;;;2.43;1.70;;;31.50;78.30;;;;;;4953578;28;20474;-78
2021/06/15 12:44:02;;;;;;;9.70;2.10;;;31.40;78.10;;;;;;4954676;28;20814;-80
2021/06/15 12:46:30;;;;;;;1.67;1.40;;;31.50;80.60;;;;;;4954993;28;20404;-78
2021/06/15 12:49:04;;;;;;;2.33;2.10;;;31.60;79.40;;;;;;4954905;29;20417;-77
2021/06/15 12:51:51;;;;;;;2.23;2.03;;;31.60;78.00;;;;;;4953455;29;20494;-78
2021/06/15 12:54:17;;;;;;;2.37;1.70;;;31.50;78.50;;;;;;4954935;28;20427;-80
2021/06/15 12:56:53;;;;;;;1.20;1.20;;;31.60;76.50;;;;;;4954926;29;21127;-78
2021/06/15 12:59:18;;;;;;;2.40;1.50;;;31.50;75.00;;;;;;4954985;28;20168;-77
2021/06/15 13:01:44;;;;;;;2.00;1.00;;;31.50;73.60;;;;;;4954454;28;20475;-77
2021/06/15 13:04:21;;;;;;;4.10;1.40;;;31.50;76.30;;;;;;4954588;29;20181;-79
2021/06/15 13:06:48;;;;;;;2.30;1.43;;;31.50;76.10;;;;;;4954603;28;20177;-78
2021/06/15 13:09:19;;;;;;;3.27;1.70;;;31.50;72.80;;;;;;4954752;28;20444;-79
2021/06/15 13:12:05;;;;;;;1.97;1.50;;;31.50;75.90;;;;;;4953451;28;20428;-77
2021/06/15 13:14:39;;;;;;;3.03;2.00;;;31.40;76.60;;;;;;4952994;28;20502;-75
2021/06/15 13:17:08;;;;;;;4.13;1.60;;;31.50;76.40;;;;;;4953061;29;20424;-77
2021/06/15 13:19:38;;;;;;;2.40;1.47;;;31.30;73.80;;;;;;4954670;28;20440;-80
2021/06/15 13:22:04;;;;;;;2.00;1.40;;;31.20;73.60;;;;;;4951459;28;20455;-76
2021/06/15 13:24:36;;;;;;;4.17;1.63;;;31.20;72.50;;;;;;4953796;28;20409;-77
2021/06/15 13:27:20;;;;;;;1.33;1.23;;;31.20;75.00;;;;;;4954233;29;20199;-77
2021/06/15 13:29:46;;;;;;;1.97;1.40;;;31.00;74.80;;;;;;4954347;28;20408;-76
2021/06/15 13:32:19;;;;;;;2.67;1.33;;;31.00;73.30;;;;;;4954109;28;20428;-77
2021/06/15 13:35:06;;;;;;;2.10;1.50;;;30.80;72.80;;;;;;4953774;29;20456;-77
2021/06/15 13:37:39;;;;;;;3.47;2.10;;;30.70;73.00;;;;;;4954111;29;20409;-77
2021/06/15 13:40:26;;;;;;;2.53;1.30;;;30.80;75.50;;;;;;4954000;28;20460;-77
2021/06/15 13:42:55;;;;;;;6.10;1.60;;;30.80;73.70;;;;;;4935744;28;20813;-74
2021/06/15 13:45:26;;;;;;;1.77;1.63;;;30.80;74.40;;;;;;4934314;29;20833;-73
2021/06/15 13:47:52;;;;;;;3.23;2.93;;;30.80;73.70;;;;;;4933101;29;21201;-73
2021/06/15 13:50:20;;;;;;;2.20;1.30;;;30.70;73.30;;;;;;4942312;29;20460;-74
2021/06/15 13:52:46;;;;;;;1.53;1.43;;;30.70;70.90;;;;;;4934266;29;20792;-73
2021/06/15 13:55:12;;;;;;;2.40;1.10;;;30.60;72.50;;;;;;4934174;29;20774;-74
2021/06/15 13:57:38;;;;;;;2.63;1.13;;;30.50;70.20;;;;;;4934602;29;20454;-74
2021/06/15 14:00:15;;;;;;;2.00;1.53;;;30.60;71.90;;;;;;4934270;29;20209;-74
2021/06/15 14:02:41;;;;;;;1.40;1.07;;;30.50;72.80;;;;;;4933934;29;20433;-74
2021/06/15 14:05:07;;;;;;;2.10;1.60;;;30.40;72.40;;;;;;4934295;29;20483;-74
2021/06/15 14:07:33;;;;;;;3.43;1.20;;;30.30;70.10;;;;;;4934503;29;20417;-74
2021/06/15 14:09:58;;;;;;;2.00;1.50;;;30.30;71.70;;;;;;4934312;29;20418;-74
2021/06/15 14:12:24;;;;;;;2.20;1.40;;;30.30;71.00;;;;;;4934082;29;20209;-74
2021/06/15 14:14:50;;;;;;;1.20;1.20;;;30.30;67.30;;;;;;4933448;29;20174;-74
2021/06/15 14:17:16;;;;;;;3.87;1.53;;;30.20;68.80;;;;;;4934163;29;20173;-74
2021/06/15 14:19:42;;;;;;;2.03;1.10;;;30.10;68.70;;;;;;4934092;29;20428;-74
2021/06/15 14:22:07;;;;;;;2.73;1.57;;;30.00;67.10;;;;;;4934678;29;20201;-75
2021/06/15 14:24:33;;;;;;;2.20;1.40;;;29.90;69.40;;;;;;4933896;29;20232;-75
2021/06/15 14:27:02;;;;;;;1.33;1.23;;;29.90;71.40;;;;;;4934246;29;20207;-74
2021/06/15 14:29:31;;;;;;;3.23;1.17;;;30.00;70.30;;;;;;4934386;29;20221;-74
2021/06/15 14:31:58;;;;;;;2.13;1.20;;;29.90;68.90;;;;;;4934132;29;20532;-75
2021/06/15 14:34:24;;;;;;;4.13;1.80;;;29.90;69.80;;;;;;4933926;29;20457;-74
2021/06/15 14:36:50;;;;;;;3.43;1.70;;;29.90;71.40;;;;;;4933975;29;20471;-75
2021/06/15 14:39:15;;;;;;;1.93;1.60;;;29.90;72.10;;;;;;4934194;29;20181;-75
2021/06/15 14:41:41;;;;;;;6.43;1.40;;;29.90;71.60;;;;;;4933929;29;20778;-74
2021/06/15 14:44:06;;;;;;;1.40;1.30;;;29.70;71.50;;;;;;4936233;29;20217;-75
2021/06/15 14:46:32;;;;;;;1.60;1.27;;;29.70;73.30;;;;;;4947271;28;20193;-73
2021/06/15 14:48:58;;;;;;;2.07;1.87;;;29.70;73.70;;;;;;4944970;29;20647;-73
2021/06/15 14:51:24;;;;;;;1.23;1.10;;;29.60;70.50;;;;;;4952920;28;20275;-73
2021/06/15 14:53:49;;;;;;;1.20;1.10;;;29.60;69.50;;;;;;4952742;28;20185;-73
2021/06/15 14:56:17;;;;;;;1.87;1.20;;;29.50;71.40;;;;;;4953109;28;20176;-73
2021/06/15 14:58:42;;;;;;;1.87;1.50;;;29.50;70.40;;;;;;4952672;29;20550;-73
2021/06/15 15:01:08;;;;;;;1.37;1.27;;;29.50;70.00;;;;;;4952970;29;20460;-73
2021/06/15 15:03:33;;;;;;;2.60;1.20;;;29.50;69.70;;;;;;4952889;29;20188;-72
2021/06/15 15:05:59;;;;;;;2.13;1.37;;;29.40;67.50;;;;;;4952967;28;20195;-73
2021/06/15 15:08:24;;;;;;;1.27;1.20;;;29.40;69.10;;;;;;4952996;29;20177;-74
2021/06/15 15:10:50;;;;;;;1.50;1.10;;;29.30;69.60;;;;;;4952742;29;20587;-73
2021/06/15 15:13:15;;;;;;;2.20;1.07;;;29.40;68.20;;;;;;4953016;28;20227;-72
2021/06/15 15:15:41;;;;;;;1.37;1.13;;;29.30;67.10;;;;;;4953025;29;20181;-73
2021/06/15 15:18:06;;;;;;;1.20;1.07;;;29.30;67.60;;;;;;4953077;28;20183;-72
2021/06/15 15:20:32;;;;;;;1.63;1.00;;;29.20;65.50;;;;;;4952694;28;20215;-72
2021/06/15 15:22:57;;;;;;;1.90;1.20;;;29.10;65.30;;;;;;4952512;28;20260;-74
2021/06/15 15:25:23;;;;;;;2.43;1.87;;;29.10;66.70;;;;;;4953793;28;20173;-73
2021/06/15 15:27:49;;;;;;;2.10;1.20;;;29.00;66.50;;;;;;4956526;29;20180;-72
2021/06/15 15:30:18;;;;;;;1.07;1.07;;;29.00;64.90;;;;;;4956301;29;20271;-72
2021/06/15 15:32:49;;;;;;;1.73;1.63;;;29.00;66.90;;;;;;4956053;29;20444;-73
2021/06/15 15:35:16;;;;;;;1.23;1.13;;;28.90;71.20;;;;;;4956336;28;20786;-73
2021/06/15 15:37:44;;;;;;;2.10;1.40;;;28.90;73.10;;;;;;4954979;29;20464;-73
2021/06/15 15:40:10;;;;;;;2.73;0.90;;;28.90;72.20;;;;;;4956140;28;20467;-73
2021/06/15 15:42:38;;;;;;;2.93;1.10;;;29.00;70.30;;;;;;4956029;28;20444;-71
2021/06/15 15:45:05;;;;;;;2.53;1.13;;;28.90;69.30;;;;;;4956025;28;20447;-73
2021/06/15 15:47:31;;;;;;;2.13;1.30;;;28.90;67.80;;;;;;4955962;29;20420;-72
2021/06/15 15:49:57;;;;;;;1.60;1.00;;;28.60;66.80;;;;;;4955910;28;20421;-72
2021/06/15 15:52:22;;;;;;;3.57;1.60;;;28.70;69.90;;;;;;4955937;28;20199;-72
2021/06/15 15:54:48;;;;;;;1.50;1.40;;;28.60;71.90;;;;;;4955628;29;20226;-72
2021/06/15 15:57:15;;;;;;;2.30;1.23;;;28.60;73.70;;;;;;4955483;29;20176;-71
2021/06/15 15:59:42;;;;;;;3.53;1.43;;;28.60;72.20;;;;;;4946398;28;20225;-72
2021/06/15 16:02:09;;;;;;;1.23;1.13;;;28.60;74.40;;;;;;4941188;28;20520;-72
2021/06/15 16:04:38;;;;;;;1.67;1.50;;;28.60;73.90;;;;;;4946786;29;20422;-71
2021/06/15 16:07:04;;;;;;;3.40;1.87;;;28.50;75.50;;;;;;4953663;29;20439;-72
2021/06/15 16:09:29;;;;;;;1.57;1.47;;;28.40;75.40;;;;;;4937235;29;20433;-73
2021/06/15 16:11:55;;;;;;;1.63;1.53;;;28.30;75.80;;;;;;4954259;28;20773;-73
2021/06/15 16:14:21;;;;;;;4.63;1.53;;;28.30;74.30;;;;;;4953963;28;20201;-73
2021/06/15 16:16:47;;;;;;;3.53;1.83;;;28.30;73.90;;;;;;4955389;29;20420;-74
2021/06/15 16:19:13;;;;;;;2.43;1.70;;;28.30;74.10;;;;;;4955355;29;20413;-73
2021/06/15 16:21:38;;;;;;;1.23;1.13;;;28.30;76.30;;;;;;4955118;29;20227;-73
2021/06/15 16:24:05;;;;;;;2.63;1.80;;;28.30;75.50;;;;;;4955103;28;20260;-75
2021/06/15 16:26:30;;;;;;;3.53;2.00;;;28.30;74.30;;;;;;4955285;28;20199;-75
2021/06/15 16:28:56;;;;;;;2.13;1.93;;;28.30;73.50;;;;;;4955238;29;20521;-75
2021/06/15 16:31:21;;;;;;;2.87;1.40;;;28.30;74.80;;;;;;4953973;29;20287;-75
2021/06/15 16:33:47;;;;;;;1.50;1.30;;;28.20;75.00;;;;;;4954879;28;20309;-74
2021/06/15 16:36:12;;;;;;;1.93;1.07;;;28.30;73.50;;;;;;4955032;28;20192;-74
2021/06/15 16:38:38;;;;;;;1.40;1.20;;;28.20;72.50;;;;;;4940381;28;20193;-74
2021/06/15 16:41:05;;;;;;;2.63;2.43;;;28.20;72.10;;;;;;4935601;29;20213;-75
2021/06/15 16:43:30;;;;;;;3.23;1.50;;;28.00;75.10;;;;;;4935704;29;20260;-75
2021/06/15 16:45:56;;;;;;;1.50;1.40;;;28.00;75.90;;;;;;4935733;29;20425;-74
2021/06/15 16:48:21;;;;;;;6.13;2.10;;;28.00;75.00;;;;;;4934388;29;20241;-75
2021/06/15 16:50:47;;;;;;;1.70;1.60;;;28.00;75.90;;;;;;4935387;29;20248;-74
2021/06/15 16:53:13;;;;;;;1.40;1.30;;;28.00;75.10;;;;;;4935455;29;20185;-74
2021/06/15 16:55:38;;;;;;;2.60;1.60;;;28.00;74.50;;;;;;4935616;29;20211;-74
2021/06/15 16:58:04;;;;;;;2.70;1.73;;;27.90;74.40;;;;;;4938057;29;20192;-74
2021/06/15 17:00:31;;;;;;;1.97;1.73;;;27.90;76.10;;;;;;4935616;29;20219;-74
2021/06/15 17:02:56;;;;;;;4.80;1.60;;;27.90;77.60;;;;;;4935239;29;20421;-74
2021/06/15 17:05:22;;;;;;;4.80;1.80;;;27.90;79.10;;;;;;4935571;29;20570;-74
2021/06/15 17:07:48;;;;;;;2.43;1.43;;;27.90;80.10;;;;;;4935261;29;20192;-74
2021/06/15 17:10:17;;;;;;;2.03;1.83;;;27.90;79.80;;;;;;4935403;29;20643;-74
2021/06/15 17:12:42;;;;;;;1.37;1.27;;;27.80;79.20;;;;;;4934834;29;20221;-73
2021/06/15 17:15:11;;;;;;;2.60;1.80;;;27.80;80.80;;;;;;4935168;28;20418;-75
2021/06/15 17:17:37;;;;;;;3.43;2.63;;;27.80;81.10;;;;;;4951703;28;20188;-74
2021/06/15 17:20:05;;;;;;;4.77;2.77;;;27.80;81.00;;;;;;4973460;28;20411;-75
2021/06/15 17:22:31;;;;;;;1.70;1.60;;;27.80;82.10;;;;;;4971692;28;20444;-74
2021/06/15 17:24:57;;;;;;;2.37;2.17;;;27.80;81.80;;;;;;4973064;28;20423;-75
2021/06/15 17:27:22;;;;;;;11.27;1.87;;;27.70;82.60;;;;;;4973510;28;20179;-75
2021/06/15 17:29:48;;;;;;;2.70;1.70;;;27.70;81.90;;;;;;4971561;28;20172;-74